^^
Station Historical Data
Daily Summary for January 19, 2017 Units:  Metric    English   Both
« Previous Day
Next Day »
Daily Weekly Monthly Yearly Custom
  High: Low: Average:
Temperature: -17.8 °C -17.6 °C -17.1 °C
Dew Point: -17.8 °C -19 °C -17.8 °C
Humidity: Humidity% 74% 91%
Wind Speed: 0km/h 0km/h 2.3km/h
Wind Gust: 0km/h - -
Wind- - West
Pressure: 0 hPa 34246 hPa -
Precipitation: 0 mm    
Historical Graphs
 
 
Tabular Data for January 19, 2017
Time Temperature Dew Point Pressure Wind Wind Speed Wind Gust Humidity Rainfall Rate (Hourly) solar Conditions
-17.8 °C -17.8 °C 0 hPa Calm     Humidity% 0 mm SoftwareType W/m2 Conditions
00:04 -16.8 °C -17.5 °C 34476.3 hPa West 3.9 km/h 9 km/h 92% 0 mm WeatherDisplay:10.37 W/m2 FEW
00:09 -16.9 °C -17.6 °C 34476.3 hPa Calm     92% 0 mm WeatherDisplay:10.37 W/m2 FEW
00:14 -16.9 °C -17.6 °C 34476.3 hPa WNW 3.1 km/h 6 km/h 92% 0 mm WeatherDisplay:10.37 W/m2 FEW
00:19 -16.9 °C -17.6 °C 34462.7 hPa West 12.7 km/h 17.9 km/h 92% 0 mm WeatherDisplay:10.37 W/m2 FEW
00:24 -16.9 °C -17.6 °C 34462.7 hPa Calm     92% 0 mm WeatherDisplay:10.37 W/m2 FEW
00:29 -16.9 °C -17.6 °C 34452.6 hPa SE 2.1 km/h 9 km/h 92% 0 mm WeatherDisplay:10.37 W/m2 FEW
00:34 -16.9 °C -17.6 °C 34462.7 hPa WNW 0.3 km/h 9 km/h 92% 0 mm WeatherDisplay:10.37 W/m2 FEW
00:39 -16.9 °C -17.6 °C 34462.7 hPa NW 3.1 km/h 9 km/h 92% 0 mm WeatherDisplay:10.37 W/m2 FEW
00:44 -16.9 °C -17.6 °C 34462.7 hPa WNW 3.1 km/h 9 km/h 92% 0 mm WeatherDisplay:10.37 W/m2 FEW
00:49 -16.9 °C -17.6 °C 34462.7 hPa NW 0.8 km/h 2.6 km/h 92% 0 mm WeatherDisplay:10.37 W/m2 FEW
00:54 -16.9 °C -17.6 °C 34452.6 hPa North 7.6 km/h 15 km/h 92% 0 mm WeatherDisplay:10.37 W/m2 FEW
00:59 -16.9 °C -17.6 °C 34452.6 hPa Calm   7.7 km/h 92% 0 mm WeatherDisplay:10.37 W/m2 FEW
01:04 -17 °C -17.6 °C 34452.6 hPa WNW 1.8 km/h 15 km/h 92% 0 mm WeatherDisplay:10.37 W/m2 FEW
01:09 -17 °C -17.6 °C 34452.6 hPa WSW 10.6 km/h 29.8 km/h 92% 0 mm WeatherDisplay:10.37 W/m2 FEW
01:14 -17 °C -17.6 °C 34452.6 hPa Calm     92% 0 mm WeatherDisplay:10.37 W/m2 FEW
01:19 -17 °C -17.7 °C 34452.6 hPa WNW 4.3 km/h 9 km/h 92% 0 mm WeatherDisplay:10.37 W/m2 FEW
01:24 -17 °C -17.7 °C 34452.6 hPa West 5 km/h 9 km/h 92% 0 mm WeatherDisplay:10.37 W/m2 FEW
01:29 -17.1 °C -17.7 °C 34452.6 hPa Calm     92% 0 mm WeatherDisplay:10.37 W/m2 FEW
01:34 -17.1 °C -17.7 °C 34452.6 hPa WNW 6.3 km/h 15.6 km/h 92% 0 mm WeatherDisplay:10.37 W/m2 FEW
01:39 -17.1 °C -17.7 °C 34452.6 hPa SW 6.4 km/h 9 km/h 92% 0 mm WeatherDisplay:10.37 W/m2 FEW
01:44 -17.1 °C -17.7 °C 34452.6 hPa WSW 1.3 km/h 10.3 km/h 92% 0 mm WeatherDisplay:10.37 W/m2 FEW
01:49 -17.1 °C -17.7 °C 34452.6 hPa South 4.7 km/h 6 km/h 92% 0 mm WeatherDisplay:10.37 W/m2 FEW
01:54 -17.1 °C -17.7 °C 34452.6 hPa Calm   9 km/h 92% 0 mm WeatherDisplay:10.37 W/m2 FEW
01:59 -17.1 °C -17.7 °C 34442.4 hPa Calm     92% 0 mm WeatherDisplay:10.37 W/m2 FEW
02:04 -17.1 °C -17.7 °C 34452.6 hPa NW 8.2 km/h 17.9 km/h 92% 0 mm WeatherDisplay:10.37 W/m2 FEW
02:09 -17.1 °C -17.7 °C 34452.6 hPa SW 6.8 km/h 9 km/h 92% 0 mm WeatherDisplay:10.37 W/m2 FEW
02:14 -17.1 °C -17.7 °C 34452.6 hPa Calm   6 km/h 92% 0 mm WeatherDisplay:10.37 W/m2 FEW
02:19 -17.1 °C -17.7 °C 34452.6 hPa West 3.7 km/h 9 km/h 92% 0 mm WeatherDisplay:10.37 W/m2 FEW
02:24 -17.1 °C -17.7 °C 34452.6 hPa WSW 3.9 km/h 9 km/h 92% 0 mm WeatherDisplay:10.37 W/m2 FEW
02:29 -17.1 °C -17.7 °C 34442.4 hPa Calm   6 km/h 92% 0 mm WeatherDisplay:10.37 W/m2 FEW
02:34 -17.1 °C -17.7 °C 34442.4 hPa West 3.1 km/h 6 km/h 92% 0 mm WeatherDisplay:10.37 W/m2 FEW
02:39 -17.1 °C -17.7 °C 34442.4 hPa SW 2.3 km/h 12.9 km/h 92% 0 mm WeatherDisplay:10.37 W/m2 FEW
02:44 -17.1 °C -17.7 °C 34442.4 hPa Calm     92% 0 mm WeatherDisplay:10.37 W/m2 FEW
02:49 -17.1 °C -17.7 °C 34442.4 hPa Calm     92% 0 mm WeatherDisplay:10.37 W/m2 FEW
02:54 -17.1 °C -17.7 °C 34428.8 hPa Calm   6 km/h 92% 0 mm WeatherDisplay:10.37 W/m2 FEW
02:59 -17.1 °C -17.7 °C 34428.8 hPa SW 5.1 km/h 5.1 km/h 92% 0 mm WeatherDisplay:10.37 W/m2 FEW
03:04 -17.1 °C -17.7 °C 34428.8 hPa Calm     92% 0 mm WeatherDisplay:10.37 W/m2 FEW
03:09 -17.1 °C -17.7 °C 34428.8 hPa West 0.3 km/h 7.7 km/h 92% 0 mm WeatherDisplay:10.37 W/m2 FEW
03:14 -17.1 °C -17.7 °C 34428.8 hPa SW 2.3 km/h 9 km/h 92% 0 mm WeatherDisplay:10.37 W/m2 FEW
03:19 -17.1 °C -17.7 °C 34418.7 hPa WSW 2.6 km/h 9 km/h 92% 0 mm WeatherDisplay:10.37 W/m2 FEW
03:24 -17.1 °C -17.7 °C 34428.8 hPa South 0.8 km/h 3.1 km/h 92% 0 mm WeatherDisplay:10.37 W/m2 FEW
03:29 -17.1 °C -17.8 °C 34428.8 hPa Calm     92% 0 mm WeatherDisplay:10.37 W/m2 FEW
03:34 -17.1 °C -17.7 °C 34428.8 hPa Calm   6 km/h 92% 0 mm WeatherDisplay:10.37 W/m2 FEW
03:39 -17.1 °C -17.7 °C 34428.8 hPa West 1.6 km/h 6 km/h 92% 0 mm WeatherDisplay:10.37 W/m2 FEW
03:44 -17.1 °C -17.7 °C 34428.8 hPa NW 3.1 km/h 9 km/h 92% 0 mm WeatherDisplay:10.37 W/m2 FEW
03:49 -17.1 °C -17.7 °C 34428.8 hPa Calm     92% 0 mm WeatherDisplay:10.37 W/m2 FEW
03:54 -17.1 °C -17.7 °C 34428.8 hPa West 2.6 km/h 6 km/h 92% 0 mm WeatherDisplay:10.37 W/m2 FEW
03:59 -17.1 °C -17.7 °C 34418.7 hPa Calm     92% 0 mm WeatherDisplay:10.37 W/m2 FEW
04:04 -17.1 °C -17.7 °C 34418.7 hPa WSW 0.3 km/h 9 km/h 92% 0 mm WeatherDisplay:10.37 W/m2 FEW
04:09 -17.1 °C -17.7 °C 34428.8 hPa WSW 3.4 km/h 6 km/h 92% 0 mm WeatherDisplay:10.37 W/m2 FEW
04:14 -17.1 °C -17.7 °C 34428.8 hPa Calm   9 km/h 92% 0 mm WeatherDisplay:10.37 W/m2 FEW
04:19 -17.1 °C -17.7 °C 34428.8 hPa NNW 3.4 km/h 5.1 km/h 92% 0 mm WeatherDisplay:10.37 W/m2 FEW
04:24 -17.1 °C -17.7 °C 34428.8 hPa Calm     92% 0 mm WeatherDisplay:10.37 W/m2 FEW
04:29 -17.1 °C -17.8 °C 34428.8 hPa NW 1.6 km/h 11.9 km/h 92% 0 mm WeatherDisplay:10.37 W/m2 FEW
04:34 -17.1 °C -17.7 °C 34418.7 hPa SW 3.4 km/h 9 km/h 92% 0 mm WeatherDisplay:10.37 W/m2 FEW
04:39 -17.1 °C -17.8 °C 34418.7 hPa WSW 2.3 km/h 9 km/h 92% 0 mm WeatherDisplay:10.37 W/m2 FEW
04:44 -17.1 °C -17.8 °C 34418.7 hPa WNW 4.7 km/h 9 km/h 92% 0 mm WeatherDisplay:10.37 W/m2 FEW
04:49 -17.1 °C -17.8 °C 34418.7 hPa NW 2.3 km/h 11.9 km/h 92% 0 mm WeatherDisplay:10.37 W/m2 FEW
04:54 -17.1 °C -17.8 °C 34418.7 hPa NW 1 km/h 3.1 km/h 92% 0 mm WeatherDisplay:10.37 W/m2 FEW
04:59 -17.1 °C -17.8 °C 34418.7 hPa SW 3.7 km/h 9 km/h 92% 0 mm WeatherDisplay:10.37 W/m2 FEW
05:04 -17.2 °C -17.8 °C 34418.7 hPa Calm   9 km/h 92% 0 mm WeatherDisplay:10.37 W/m2 FEW
05:09 -17.1 °C -17.8 °C 34418.7 hPa Calm     92% 0 mm WeatherDisplay:10.37 W/m2 FEW
05:14 -17.1 °C -17.8 °C 34428.8 hPa SSE 2.6 km/h 10.3 km/h 92% 0 mm WeatherDisplay:10.37 W/m2 FEW
05:19 -17.2 °C -17.8 °C 34418.7 hPa Calm   6 km/h 92% 0 mm WeatherDisplay:10.37 W/m2 FEW
05:24 -17.1 °C -17.8 °C 34418.7 hPa West 0.5 km/h 17.9 km/h 92% 0 mm WeatherDisplay:10.37 W/m2 FEW
05:29 -17.1 °C -17.8 °C 34418.7 hPa WNW 4.2 km/h 17.9 km/h 92% 0 mm WeatherDisplay:10.37 W/m2 FEW
05:34 -17.1 °C -17.8 °C 34428.8 hPa WNW 2.9 km/h 6 km/h 92% 0 mm WeatherDisplay:10.37 W/m2 FEW
05:39 -17.1 °C -17.8 °C 34418.7 hPa NW 1.3 km/h 6 km/h 92% 0 mm WeatherDisplay:10.37 W/m2 FEW
05:44 -17.1 °C -17.8 °C 34418.7 hPa Calm   15 km/h 92% 0 mm WeatherDisplay:10.37 W/m2 FEW
05:49 -17.1 °C -17.8 °C 34418.7 hPa WSW 0.3 km/h   92% 0 mm WeatherDisplay:10.37 W/m2 FEW
05:54 -17.1 °C -17.8 °C 34418.7 hPa West 2.3 km/h 15 km/h 92% 0 mm WeatherDisplay:10.37 W/m2 FEW
05:59 -17.1 °C -17.8 °C 34418.7 hPa WSW 0.5 km/h 5.1 km/h 92% 0 mm WeatherDisplay:10.37 W/m2 FEW
06:04 -17.1 °C -17.8 °C 34418.7 hPa Calm   9 km/h 92% 0 mm WeatherDisplay:10.37 W/m2 FEW
06:09 -17.1 °C -17.8 °C 34418.7 hPa Calm     92% 0 mm WeatherDisplay:10.37 W/m2 FEW
06:14 -17.1 °C -17.8 °C 34418.7 hPa Calm     92% 0 mm WeatherDisplay:10.37 W/m2 FEW
06:19 -17.1 °C -17.8 °C 34418.7 hPa West 1.6 km/h 6 km/h 92% 0 mm WeatherDisplay:10.37 W/m2 FEW
06:24 -17.1 °C -17.8 °C 34418.7 hPa West 5.1 km/h 6 km/h 92% 0 mm WeatherDisplay:10.37 W/m2 FEW
06:29 -17.1 °C -17.7 °C 34418.7 hPa Calm     92% 0 mm WeatherDisplay:10.37 W/m2 FEW
06:34 -17.1 °C -17.7 °C 34418.7 hPa WNW 1.8 km/h 10.3 km/h 92% 0 mm WeatherDisplay:10.37 W/m2 FEW
06:39 -17.1 °C -17.7 °C 34428.8 hPa Calm     93% 0 mm WeatherDisplay:10.37 W/m2 FEW
06:44 -17.1 °C -17.7 °C 34428.8 hPa Calm   3.1 km/h 93% 0 mm WeatherDisplay:10.37 W/m2 FEW
06:49 -17.1 °C -17.7 °C 34418.7 hPa SSW 1.3 km/h 6 km/h 93% 0 mm WeatherDisplay:10.37 W/m2 FEW
06:54 -17.1 °C -17.7 °C 34428.8 hPa Calm   3.1 km/h 93% 0 mm WeatherDisplay:10.37 W/m2 FEW
06:59 -17.1 °C -17.7 °C 34428.8 hPa WSW 1 km/h 6 km/h 93% 0 mm WeatherDisplay:10.37 W/m2 FEW
07:04 -17.1 °C -17.7 °C 34428.8 hPa West 3.9 km/h 11.9 km/h 93% 0 mm WeatherDisplay:10.37 W/m2 FEW
07:09 -17.1 °C -17.6 °C 34428.8 hPa West 3.4 km/h 15 km/h 93% 0 mm WeatherDisplay:10.37 W/m2 FEW
07:14 -17.1 °C -17.7 °C 34428.8 hPa WSW 3.4 km/h 15 km/h 93% 0 mm WeatherDisplay:10.37 W/m2 FEW
07:19 -17.1 °C -17.6 °C 34428.8 hPa Calm   3.1 km/h 93% 0 mm WeatherDisplay:10.37 W/m2 FEW
07:24 -17.1 °C -17.6 °C 34428.8 hPa WNW 1.6 km/h   93% 0 mm WeatherDisplay:10.37 W/m2 FEW
07:29 -17.1 °C -17.6 °C 34428.8 hPa WSW 0.3 km/h 9 km/h 93% 0 mm WeatherDisplay:10.37 W/m2 FEW
07:34 -17.1 °C -17.6 °C 34428.8 hPa WSW 1.6 km/h   93% 0 mm WeatherDisplay:10.37 W/m2 FEW
07:39 -17.1 °C -17.6 °C 34428.8 hPa SSW 1.3 km/h 6 km/h 93% 0 mm WeatherDisplay:10.37 W/m2 FEW
07:44 -17.1 °C -17.7 °C 34428.8 hPa Calm     93% 0 mm WeatherDisplay:10.37 W/m2 FEW
07:49 -17.1 °C -17.7 °C 34428.8 hPa Calm     93% 0 mm WeatherDisplay:10.37 W/m2 FEW
07:54 -17.1 °C -17.6 °C 34428.8 hPa Calm     93% 0 mm WeatherDisplay:10.37 W/m2 FEW
07:59 -17.1 °C -17.6 °C 34428.8 hPa Calm   2.6 km/h 93% 0 mm WeatherDisplay:10.37 W/m2 FEW
08:04 -17.1 °C -17.6 °C 34428.8 hPa NW 1 km/h 6 km/h 93% 0 mm WeatherDisplay:10.37 W/m2 FEW
08:09 -17.1 °C -17.6 °C 34428.8 hPa Calm   6 km/h 93% 0 mm WeatherDisplay:10.37 W/m2 FEW
08:14 -17.1 °C -17.6 °C 34428.8 hPa West 1.6 km/h 3.1 km/h 93% 0 mm WeatherDisplay:10.37 W/m2 FEW
08:19 -17.1 °C -17.6 °C 34428.8 hPa Calm   9 km/h 93% 0 mm WeatherDisplay:10.37 W/m2 FEW
08:24 -17.1 °C -17.6 °C 34418.7 hPa WSW 0.5 km/h 6 km/h 93% 0 mm WeatherDisplay:10.37 W/m2 FEW
08:29 -17.1 °C -17.7 °C 34428.8 hPa West 1.3 km/h   93% 0 mm WeatherDisplay:10.37 W/m2 FEW
08:34 -17.1 °C -17.7 °C 34428.8 hPa Calm     93% 0 mm WeatherDisplay:10.37 W/m2 FEW
08:39 -17.1 °C -17.7 °C 34428.8 hPa Calm     93% 0 mm WeatherDisplay:10.37 W/m2 FEW
08:44 -17.1 °C -17.7 °C 34428.8 hPa NW 2.6 km/h 7.7 km/h 93% 0 mm WeatherDisplay:10.37 W/m2 FEW
08:49 -17.1 °C -17.7 °C 34418.7 hPa NNE 1.6 km/h 9 km/h 93% 0 mm WeatherDisplay:10.37 W/m2 FEW
08:54 -17.1 °C -17.7 °C 34418.7 hPa Calm     93% 0 mm WeatherDisplay:10.37 W/m2 FEW
08:59 -17.1 °C -17.7 °C 34428.8 hPa Calm   3.1 km/h 93% 0 mm WeatherDisplay:10.37 W/m2 FEW
09:04 -17.1 °C -17.7 °C 34418.7 hPa Calm   11.9 km/h 93% 0 mm WeatherDisplay:10.37 W/m2 FEW
09:09 -17.1 °C -17.7 °C 34428.8 hPa WSW 1.3 km/h 3.1 km/h 93% 0 mm WeatherDisplay:10.37 W/m2 FEW
09:14 -17.1 °C -17.7 °C 34418.7 hPa Calm     93% 0 mm WeatherDisplay:10.37 W/m2 FEW
09:19 -17.1 °C -17.7 °C 34418.7 hPa Calm   9 km/h 93% 0 mm WeatherDisplay:10.37 W/m2 FEW
09:24 -17.1 °C -17.7 °C 34428.8 hPa Calm   6 km/h 93% 0 mm WeatherDisplay:10.37 W/m2 FEW
09:29 -17.1 °C -17.7 °C 34428.8 hPa Calm     93% 0 mm WeatherDisplay:10.37 W/m2 FEW
09:34 -17.1 °C -17.7 °C 34418.7 hPa Calm   9 km/h 93% 0 mm WeatherDisplay:10.37 W/m2 FEW
09:39 -17.1 °C -17.6 °C 34418.7 hPa Calm   6 km/h 93% 0 mm WeatherDisplay:10.37 W/m2 FEW
09:44 -17.1 °C -17.6 °C 34418.7 hPa Calm     93% 0 mm WeatherDisplay:10.37 W/m2 FEW
09:49 -17.1 °C -17.6 °C 34428.8 hPa WSW 4.7 km/h 11.9 km/h 93% 0 mm WeatherDisplay:10.37 W/m2 FEW
09:54 -17.1 °C -17.6 °C 34428.8 hPa Calm     93% 0 mm WeatherDisplay:10.37 W/m2 FEW
09:59 -17.1 °C -17.6 °C 34428.8 hPa West 1.8 km/h 5.1 km/h 93% 0 mm WeatherDisplay:10.37 W/m2 FEW
10:04 -17.1 °C -17.6 °C 34418.7 hPa Calm     93% 0 mm WeatherDisplay:10.37 W/m2 FEW
10:09 -17.1 °C -17.6 °C 34418.7 hPa WNW 3.1 km/h 3.1 km/h 93% 0 mm WeatherDisplay:10.37 W/m2 FEW
10:14 -17.1 °C -17.6 °C 34418.7 hPa Calm     93% 0 mm WeatherDisplay:10.37 W/m2 FEW
10:19 -17.1 °C -17.6 °C 34418.7 hPa Calm   6 km/h 93% 0 mm WeatherDisplay:10.37 W/m2 FEW
10:24 -17.1 °C -17.6 °C 34418.7 hPa Calm   9 km/h 93% 0 mm WeatherDisplay:10.37 W/m2 FEW
10:29 -17.1 °C -17.6 °C 34418.7 hPa NNW 1 km/h 9 km/h 93% 0 mm WeatherDisplay:10.37 W/m2 FEW
10:34 -17.1 °C -17.7 °C 34418.7 hPa WNW 1 km/h   93% 0 mm WeatherDisplay:10.37 W/m2 FEW
10:39 -17.1 °C -17.7 °C 34418.7 hPa Calm     93% 0 mm WeatherDisplay:10.37 W/m2 FEW
10:44 -17.1 °C -17.7 °C 34418.7 hPa West 4.7 km/h 9 km/h 93% 0 mm WeatherDisplay:10.37 W/m2 FEW
10:49 -17.1 °C -17.7 °C 34418.7 hPa NW 1.3 km/h 9 km/h 93% 0 mm WeatherDisplay:10.37 W/m2 FEW
10:54 -17.1 °C -17.7 °C 34418.7 hPa Calm   9 km/h 92% 0 mm WeatherDisplay:10.37 W/m2 FEW
10:59 -17.1 °C -17.7 °C 34418.7 hPa WSW 0.3 km/h 9 km/h 92% 0 mm WeatherDisplay:10.37 W/m2 FEW
11:04 -17.1 °C -17.8 °C 34405.1 hPa Calm     92% 0 mm WeatherDisplay:10.37 W/m2 FEW
11:09 -17.1 °C -17.8 °C 34405.1 hPa SW 1.6 km/h   92% 0 mm WeatherDisplay:10.37 W/m2 FEW
11:14 -17.1 °C -17.8 °C 34405.1 hPa Calm     92% 0 mm WeatherDisplay:10.37 W/m2 FEW
11:19 -17.1 °C -17.8 °C 34405.1 hPa Calm     92% 0 mm WeatherDisplay:10.37 W/m2 FEW
11:24 -17.1 °C -17.8 °C 34395 hPa SW 1 km/h 9 km/h 92% 0 mm WeatherDisplay:10.37 W/m2 FEW
11:29 -17.1 °C -17.8 °C 34405.1 hPa SW 4.7 km/h 9 km/h 92% 0 mm WeatherDisplay:10.37 W/m2 FEW
11:34 -17.1 °C -17.8 °C 34395 hPa Calm     92% 0 mm WeatherDisplay:10.37 W/m2 FEW
11:39 -17.1 °C -17.8 °C 34395 hPa NW 1 km/h 9 km/h 92% 0 mm WeatherDisplay:10.37 W/m2 FEW
11:45 -17.1 °C -17.7 °C 34395 hPa Calm     92% 0 mm WeatherDisplay:10.37 W/m2 FEW
11:50 -17.1 °C -17.7 °C 34395 hPa Calm     93% 0 mm WeatherDisplay:10.37 W/m2 FEW
11:55 -17.1 °C -17.8 °C 34395 hPa Calm     92% 0 mm WeatherDisplay:10.37 W/m2 FEW
12:00 -17.1 °C -17.7 °C 34395 hPa NW 2.6 km/h 9 km/h 92% 0 mm WeatherDisplay:10.37 W/m2 FEW
12:05 -17.1 °C -17.8 °C 34384.8 hPa SW 0.3 km/h 6 km/h 92% 0 mm WeatherDisplay:10.37 W/m2 FEW
12:10 -17.1 °C -17.8 °C 34384.8 hPa WSW 0.8 km/h 6 km/h 92% 0 mm WeatherDisplay:10.37 W/m2 FEW
12:15 -17.1 °C -17.8 °C 34384.8 hPa Calm   6 km/h 92% 0 mm WeatherDisplay:10.37 W/m2 FEW
12:20 -17.1 °C -17.8 °C 34395 hPa NNW 0.3 km/h 6 km/h 92% 0 mm WeatherDisplay:10.37 W/m2 FEW
12:25 -17.1 °C -17.8 °C 34384.8 hPa Calm     92% 0 mm WeatherDisplay:10.37 W/m2 FEW
12:30 -17.1 °C -17.8 °C 34384.8 hPa Calm     92% 0 mm WeatherDisplay:10.37 W/m2 FEW
12:35 -17.1 °C -17.8 °C 34384.8 hPa WSW 0.5 km/h 5.1 km/h 92% 0 mm WeatherDisplay:10.37 W/m2 FEW
12:40 -17.1 °C -17.7 °C 34384.8 hPa West 0.3 km/h 3.1 km/h 93% 0 mm WeatherDisplay:10.37 W/m2 FEW
12:45 -17.1 °C -17.6 °C 34384.8 hPa Calm     93% 0 mm WeatherDisplay:10.37 W/m2 FEW
12:50 -17.1 °C -17.6 °C 34371.3 hPa Calm     93% 0 mm WeatherDisplay:10.37 W/m2 FEW
12:55 -17.1 °C -17.6 °C 34361.1 hPa Calm     93% 0 mm WeatherDisplay:10.37 W/m2 FEW
13:00 -17.1 °C -17.6 °C 34361.1 hPa Calm     93% 0 mm WeatherDisplay:10.37 W/m2 FEW
13:05 -17.1 °C -17.6 °C 34361.1 hPa Calm     93% 0 mm WeatherDisplay:10.37 W/m2 FEW
13:10 -17.1 °C -17.6 °C 34361.1 hPa SW 0.3 km/h 6 km/h 93% 0 mm WeatherDisplay:10.37 W/m2 FEW
13:15 -17.1 °C -17.6 °C 34361.1 hPa Calm     93% 0 mm WeatherDisplay:10.37 W/m2 FEW
13:20 -17.1 °C -17.7 °C 34361.1 hPa Calm     93% 0 mm WeatherDisplay:10.37 W/m2 FEW
13:25 -17.1 °C -17.7 °C 34361.1 hPa Calm     92% 0 mm WeatherDisplay:10.37 W/m2 FEW
13:30 -17.1 °C -17.8 °C 34361.1 hPa Calm     92% 0 mm WeatherDisplay:10.37 W/m2 FEW
13:35 -17.2 °C -17.8 °C 34347.6 hPa Calm     92% 0 mm WeatherDisplay:10.37 W/m2 FEW
13:40 -17.2 °C -17.8 °C 34347.6 hPa Calm     92% 0 mm WeatherDisplay:10.37 W/m2 FEW
13:45 -17.2 °C -17.8 °C 34347.6 hPa Calm     92% 0 mm WeatherDisplay:10.37 W/m2 FEW
13:50 -17.2 °C -17.8 °C 34347.6 hPa Calm     92% 0 mm WeatherDisplay:10.37 W/m2 FEW
13:55 -17.2 °C -17.9 °C 34337.4 hPa Calm     92% 0 mm WeatherDisplay:10.37 W/m2 FEW
14:00 -17.3 °C -17.8 °C 34337.4 hPa Calm     93% 0 mm WeatherDisplay:10.37 W/m2 FEW
14:05 -17.3 °C -17.8 °C 34337.4 hPa Calm     93% 0 mm WeatherDisplay:10.37 W/m2 FEW
14:10 -17.3 °C -17.9 °C 34337.4 hPa WNW 0.3 km/h   93% 0 mm WeatherDisplay:10.37 W/m2 FEW
14:15 -17.3 °C -17.9 °C 34327.3 hPa Calm     92% 0 mm WeatherDisplay:10.37 W/m2 FEW
14:20 -17.3 °C -17.9 °C 34327.3 hPa Calm     92% 0 mm WeatherDisplay:10.37 W/m2 FEW
14:25 -17.3 °C -17.9 °C 34313.7 hPa Calm     92% 0 mm WeatherDisplay:10.37 W/m2 FEW
14:30 -17.3 °C -17.9 °C 34313.7 hPa Calm     92% 0 mm WeatherDisplay:10.37 W/m2 FEW
14:35 -17.2 °C -17.9 °C 34313.7 hPa Calm     92% 0 mm WeatherDisplay:10.37 W/m2 FEW
14:40 -17.2 °C -17.8 °C 34313.7 hPa Calm     92% 0 mm WeatherDisplay:10.37 W/m2 FEW
14:45 -17.1 °C -17.8 °C 34313.7 hPa Calm     92% 0 mm WeatherDisplay:10.37 W/m2 FEW
14:50 -17.2 °C -17.8 °C 34313.7 hPa Calm     92% 0 mm WeatherDisplay:10.37 W/m2 FEW
14:55 -17.2 °C -17.8 °C 34313.7 hPa Calm     92% 0 mm WeatherDisplay:10.37 W/m2 FEW
15:00 -17.2 °C -17.8 °C 34303.6 hPa WSW 1.3 km/h 7.7 km/h 92% 0 mm WeatherDisplay:10.37 W/m2 FEW
15:05 -17.1 °C -17.8 °C 34303.6 hPa WSW 1 km/h 6 km/h 92% 0 mm WeatherDisplay:10.37 W/m2 FEW
15:10 -17.2 °C -17.8 °C 34303.6 hPa Calm     92% 0 mm WeatherDisplay:10.37 W/m2 FEW
15:15 -17.3 °C -17.8 °C 34293.4 hPa Calm   3.1 km/h 93% 0 mm WeatherDisplay:10.37 W/m2 FEW
15:20 -17.2 °C -17.8 °C 34293.4 hPa WSW 0.8 km/h 6 km/h 92% 0 mm WeatherDisplay:10.37 W/m2 FEW
15:25 -17.2 °C -17.8 °C 34293.4 hPa Calm     93% 0 mm WeatherDisplay:10.37 W/m2 FEW
15:30 -17.3 °C -17.8 °C 34293.4 hPa WSW 0.8 km/h 6 km/h 93% 0 mm WeatherDisplay:10.37 W/m2 FEW
15:35 -17.3 °C -17.9 °C 34293.4 hPa Calm     92% 0 mm WeatherDisplay:10.37 W/m2 FEW
15:40 -17.3 °C -18 °C 34279.9 hPa Calm     92% 0 mm WeatherDisplay:10.37 W/m2 FEW
15:45 -17.4 °C -18 °C 34279.9 hPa Calm   3.1 km/h 93% 0 mm WeatherDisplay:10.37 W/m2 FEW
15:50 -17.5 °C -18.1 °C 34269.7 hPa Calm     93% 0 mm WeatherDisplay:10.37 W/m2 FEW
15:55 -17.6 °C -18.2 °C 34269.7 hPa Calm     92% 0 mm WeatherDisplay:10.37 W/m2 FEW
16:00 -17.6 °C -18.2 °C 34269.7 hPa NNW 1.3 km/h 9 km/h 92% 0 mm WeatherDisplay:10.37 W/m2 FEW
16:05 -17.6 °C -18.2 °C 34269.7 hPa SSW 0.8 km/h 3.1 km/h 92% 0 mm WeatherDisplay:10.37 W/m2 FEW
16:10 -17.4 °C -18.1 °C 34269.7 hPa SE 1 km/h 5.1 km/h 92% 0 mm WeatherDisplay:10.37 W/m2 FEW
16:15 -17.4 °C -18.1 °C 34256.2 hPa East 0.3 km/h 6 km/h 92% 0 mm WeatherDisplay:10.37 W/m2 FEW
16:20 -17.4 °C -18.1 °C 34256.2 hPa Calm     92% 0 mm WeatherDisplay:10.37 W/m2 FEW
16:25 -17.3 °C -17.9 °C 34256.2 hPa WNW 1.3 km/h 6 km/h 92% 0 mm WeatherDisplay:10.37 W/m2 FEW
16:30 -17.1 °C -17.8 °C 34256.2 hPa SSE 3.4 km/h 9 km/h 92% 0 mm WeatherDisplay:10.37 W/m2 FEW
16:35 -17.1 °C -17.7 °C 34246 hPa SSW 2.6 km/h 9 km/h 93% 0 mm WeatherDisplay:10.37 W/m2 FEW
16:40 -17.1 °C -17.7 °C 34246 hPa NW 2.9 km/h 9 km/h 93% 0 mm WeatherDisplay:10.37 W/m2 FEW
16:45 -17.1 °C -17.6 °C 34246 hPa SSW 2.6 km/h 6 km/h 93% 0 mm WeatherDisplay:10.37 W/m2 FEW
16:50 -17 °C -17.7 °C 34246 hPa Calm   3.1 km/h 92% 0 mm WeatherDisplay:10.37 W/m2 FEW
16:55 -17.1 °C -17.7 °C 34256.2 hPa West 2.3 km/h 18.2 km/h 92% 0 mm WeatherDisplay:10.37 W/m2 FEW
17:00 -17 °C -17.7 °C 34256.2 hPa Calm     92% 0 mm WeatherDisplay:10.37 W/m2 FEW
17:05 -16.9 °C -17.4 °C 34256.2 hPa NNW 1 km/h 6 km/h 93% 0 mm WeatherDisplay:10.37 W/m2 FEW
17:10 -16.8 °C -17.5 °C 34256.2 hPa Calm   6 km/h 92% 0 mm WeatherDisplay:10.37 W/m2 FEW
17:15 -16.8 °C -17.4 °C 34256.2 hPa SW 0.5 km/h 3.1 km/h 92% 0 mm WeatherDisplay:10.37 W/m2 FEW
17:20 -16.8 °C -17.4 °C 34269.7 hPa WNW 1.3 km/h 9 km/h 92% 0 mm WeatherDisplay:10.37 W/m2 FEW
17:25 -16.8 °C -17.4 °C 34269.7 hPa WNW 4.3 km/h 17.9 km/h 92% 0 mm WeatherDisplay:10.37 W/m2 FEW
17:30 -16.8 °C -17.4 °C 34269.7 hPa West 3.4 km/h 15.6 km/h 92% 0 mm WeatherDisplay:10.37 W/m2 FEW
17:35 -16.8 °C -17.4 °C 34269.7 hPa West 2.9 km/h 9 km/h 92% 0 mm WeatherDisplay:10.37 W/m2 FEW
17:40 -16.8 °C -17.4 °C 34256.2 hPa NW 11.1 km/h 23.8 km/h 92% 0 mm WeatherDisplay:10.37 W/m2 FEW
17:45 -16.7 °C -17.4 °C 34269.7 hPa WNW 0.8 km/h 9 km/h 92% 0 mm WeatherDisplay:10.37 W/m2 FEW
17:50 -16.8 °C -17.4 °C 34269.7 hPa SW 3.7 km/h 9 km/h 92% 0 mm WeatherDisplay:10.37 W/m2 FEW
17:55 -16.8 °C -17.4 °C 34256.2 hPa NW 6.4 km/h 9 km/h 92% 0 mm WeatherDisplay:10.37 W/m2 FEW
18:00 -16.8 °C -17.5 °C 34256.2 hPa WSW 2.3 km/h 9 km/h 92% 0 mm WeatherDisplay:10.37 W/m2 FEW
18:05 -16.8 °C -17.5 °C 34256.2 hPa SW 6.3 km/h 7.7 km/h 92% 0 mm WeatherDisplay:10.37 W/m2 FEW
18:10 -16.9 °C -17.4 °C 34256.2 hPa West 1 km/h 9 km/h 93% 0 mm WeatherDisplay:10.37 W/m2 FEW
18:15 -17 °C -17.6 °C 34246 hPa Calm     93% 0 mm WeatherDisplay:10.37 W/m2 FEW
18:20 -17 °C -17.6 °C 34256.2 hPa WSW 3.7 km/h 7.7 km/h 93% 0 mm WeatherDisplay:10.37 W/m2 FEW
18:25 -17.1 °C -17.6 °C 34246 hPa Calm     93% 0 mm WeatherDisplay:10.37 W/m2 FEW
18:30 -17.2 °C -17.7 °C 34246 hPa Calm   3.1 km/h 93% 0 mm WeatherDisplay:10.37 W/m2 FEW
18:35 -17.2 °C -17.7 °C 34256.2 hPa West 0.5 km/h 6 km/h 93% 0 mm WeatherDisplay:10.37 W/m2 FEW
18:40 -17.2 °C -17.8 °C 34269.7 hPa North 0.5 km/h   93% 0 mm WeatherDisplay:10.37 W/m2 FEW
18:45 -17.3 °C -17.8 °C 34256.2 hPa Calm     93% 0 mm WeatherDisplay:10.37 W/m2 FEW
18:50 -17.3 °C -17.9 °C 34256.2 hPa Calm     93% 0 mm WeatherDisplay:10.37 W/m2 FEW
18:55 -17.3 °C -17.9 °C 34256.2 hPa West 3.7 km/h 11.9 km/h 93% 0 mm WeatherDisplay:10.37 W/m2 FEW
19:00 -17.3 °C -17.8 °C 34269.7 hPa WSW 2.9 km/h 9 km/h 93% 0 mm WeatherDisplay:10.37 W/m2 FEW
19:05 -17.3 °C -17.8 °C 34269.7 hPa West 5.1 km/h 9 km/h 93% 0 mm WeatherDisplay:10.37 W/m2 FEW
19:10 -17.3 °C -17.8 °C 34269.7 hPa Calm   6 km/h 93% 0 mm WeatherDisplay:10.37 W/m2 FEW
19:15 -17.3 °C -17.9 °C 34269.7 hPa Calm     93% 0 mm WeatherDisplay:10.37 W/m2 FEW
19:20 -17.3 °C -17.9 °C 34269.7 hPa NW 0.8 km/h 9 km/h 93% 0 mm WeatherDisplay:10.37 W/m2 FEW
19:25 -17.4 °C -17.9 °C 34269.7 hPa SW 2.1 km/h 9 km/h 93% 0 mm WeatherDisplay:10.37 W/m2 FEW
19:30 -17.4 °C -17.9 °C 34269.7 hPa Calm     93% 0 mm WeatherDisplay:10.37 W/m2 FEW
19:35 -17.4 °C -17.9 °C 34269.7 hPa Calm     93% 0 mm WeatherDisplay:10.37 W/m2 FEW
19:40 -17.4 °C -18 °C 34269.7 hPa Calm   3.1 km/h 93% 0 mm WeatherDisplay:10.37 W/m2 FEW
19:45 -17.4 °C -18 °C 34269.7 hPa WSW 1.3 km/h 9 km/h 93% 0 mm WeatherDisplay:10.37 W/m2 FEW
19:50 -17.5 °C -18.1 °C 34269.7 hPa Calm     93% 0 mm WeatherDisplay:10.37 W/m2 FEW
19:55 -17.5 °C -18.2 °C 34269.7 hPa WNW 2.3 km/h 17.9 km/h 92% 0 mm WeatherDisplay:10.37 W/m2 FEW
20:00 -17.4 °C -17.9 °C 34269.7 hPa Calm   3.1 km/h 93% 0 mm WeatherDisplay:10.37 W/m2 FEW
20:05 -17.4 °C -17.9 °C 34269.7 hPa West 8.2 km/h 11.9 km/h 93% 0 mm WeatherDisplay:10.37 W/m2 FEW
20:10 -17.4 °C -18 °C 34269.7 hPa WNW 0.8 km/h   92% 0 mm WeatherDisplay:10.37 W/m2 FEW
20:15 -17.3 °C -18 °C 34279.9 hPa NNW 1.6 km/h 9 km/h 92% 0 mm WeatherDisplay:10.37 W/m2 FEW
20:20 -17.4 °C -18 °C 34269.7 hPa Calm     92% 0 mm WeatherDisplay:10.37 W/m2 FEW
20:25 -17.4 °C -18 °C 34279.9 hPa SW 1.3 km/h 9 km/h 92% 0 mm WeatherDisplay:10.37 W/m2 FEW
20:30 -17.3 °C -18 °C 34279.9 hPa WSW 4.7 km/h 15 km/h 92% 0 mm WeatherDisplay:10.37 W/m2 FEW
20:35 -17.3 °C -17.9 °C 34279.9 hPa Calm   9 km/h 92% 0 mm WeatherDisplay:10.37 W/m2 FEW
20:40 -17.3 °C -17.8 °C 34279.9 hPa WSW 0.5 km/h 9 km/h 93% 0 mm WeatherDisplay:10.37 W/m2 FEW
20:45 -17.3 °C -17.8 °C 34279.9 hPa Calm     93% 0 mm WeatherDisplay:10.37 W/m2 FEW
20:50 -17.2 °C -17.8 °C 34293.4 hPa Calm   9 km/h 93% 0 mm WeatherDisplay:10.37 W/m2 FEW
20:55 -17.2 °C -17.8 °C 34293.4 hPa WNW 1.3 km/h 9 km/h 93% 0 mm WeatherDisplay:10.37 W/m2 FEW
21:00 -17.3 °C -17.8 °C 34293.4 hPa Calm   3.1 km/h 93% 0 mm WeatherDisplay:10.37 W/m2 FEW
21:05 -17.2 °C -17.8 °C 34293.4 hPa West 1.6 km/h 9 km/h 93% 0 mm WeatherDisplay:10.37 W/m2 FEW
21:10 -17.2 °C -17.7 °C 34293.4 hPa Calm   9 km/h 93% 0 mm WeatherDisplay:10.37 W/m2 FEW
21:15 -17.2 °C -17.7 °C 34293.4 hPa WSW 1.6 km/h 7.7 km/h 93% 0 mm WeatherDisplay:10.37 W/m2 FEW
21:20 -17.2 °C -17.7 °C 34303.6 hPa West 3.7 km/h 15 km/h 93% 0 mm WeatherDisplay:10.37 W/m2 FEW
21:25 -17.2 °C -17.7 °C 34303.6 hPa Calm     93% 0 mm WeatherDisplay:10.37 W/m2 FEW
21:30 -17.3 °C -17.8 °C 34303.6 hPa NW 1.6 km/h 3.1 km/h 93% 0 mm WeatherDisplay:10.37 W/m2 FEW
21:35 -17.3 °C -17.8 °C 34303.6 hPa NNW 0.5 km/h 10.3 km/h 93% 0 mm WeatherDisplay:10.37 W/m2 FEW
21:40 -17.3 °C -17.8 °C 34303.6 hPa SSW 2.6 km/h 9 km/h 93% 0 mm WeatherDisplay:10.37 W/m2 FEW
21:45 -17.4 °C -17.9 °C 34303.6 hPa Calm     93% 0 mm WeatherDisplay:10.37 W/m2 FEW
21:50 -17.4 °C -17.9 °C 34303.6 hPa NW 4.7 km/h 5.1 km/h 93% 0 mm WeatherDisplay:10.37 W/m2 FEW
21:55 -17.4 °C -18 °C 34313.7 hPa West 1.6 km/h 9 km/h 93% 0 mm WeatherDisplay:10.37 W/m2 FEW
22:00 -17.4 °C -17.9 °C 34313.7 hPa NNW 6.3 km/h 9 km/h 93% 0 mm WeatherDisplay:10.37 W/m2 FEW
22:05 -17.3 °C -17.9 °C 34313.7 hPa WNW 6 km/h 18.2 km/h 93% 0 mm WeatherDisplay:10.37 W/m2 FEW
22:10 -17.2 °C -17.8 °C 34313.7 hPa NNW 14.2 km/h 14.2 km/h 93% 0 mm WeatherDisplay:10.37 W/m2 FEW
22:15 -17.1 °C -17.6 °C 34313.7 hPa WNW 12.9 km/h 29.8 km/h 93% 0 mm WeatherDisplay:10.37 W/m2 FEW
22:20 -16.8 °C -17.6 °C 34327.3 hPa NNW 13.5 km/h 38.8 km/h 91% 0 mm WeatherDisplay:10.37 W/m2 FEW
22:25 -16.6 °C -17.4 °C 34327.3 hPa North 12.2 km/h 20.9 km/h 90% 0 mm WeatherDisplay:10.37 W/m2 FEW
22:30 -16.4 °C -17.4 °C 34327.3 hPa NW 21.2 km/h 23.8 km/h 88% 0 mm WeatherDisplay:10.37 W/m2 FEW
22:35 -16.3 °C -17.5 °C 34327.3 hPa WNW 19.2 km/h 20.9 km/h 86% 0 mm WeatherDisplay:10.37 W/m2 FEW
22:40 -16.3 °C -17.6 °C 34327.3 hPa NNW 6.9 km/h 17.9 km/h 85% 0 mm WeatherDisplay:10.37 W/m2 FEW
22:45 -16.3 °C -17.7 °C 34337.4 hPa NNW 14.8 km/h 26.9 km/h 84% 0 mm WeatherDisplay:10.37 W/m2 FEW
22:50 -16.3 °C -17.7 °C 34337.4 hPa West 17.9 km/h 38.8 km/h 83% 0 mm WeatherDisplay:10.37 W/m2 FEW
22:55 -16.3 °C -17.8 °C 34337.4 hPa NNW 11.6 km/h 17.9 km/h 82% 0 mm WeatherDisplay:10.37 W/m2 FEW
23:00 -16.3 °C -17.9 °C 34347.6 hPa North 17.9 km/h 32.8 km/h 81% 0 mm WeatherDisplay:10.37 W/m2 FEW
23:05 -16.3 °C -17.9 °C 34347.6 hPa NNW 14.5 km/h 26.9 km/h 81% 0 mm WeatherDisplay:10.37 W/m2 FEW
23:10 -16.3 °C -18.1 °C 34361.1 hPa NNW 13.5 km/h 38.8 km/h 80% 0 mm WeatherDisplay:10.37 W/m2 FEW
23:15 -16.4 °C -18.2 °C 34361.1 hPa West 9.3 km/h 11.9 km/h 79% 0 mm WeatherDisplay:10.37 W/m2 FEW
23:20 -16.4 °C -18.3 °C 34371.3 hPa NNW 9.7 km/h 23.8 km/h 78% 0 mm WeatherDisplay:10.37 W/m2 FEW
23:25 -16.4 °C -18.4 °C 34361.1 hPa NW 16.6 km/h 23.8 km/h 77% 0 mm WeatherDisplay:10.37 W/m2 FEW
23:30 -16.5 °C -18.6 °C 34371.3 hPa NNW 9.8 km/h 17.9 km/h 76% 0 mm WeatherDisplay:10.37 W/m2 FEW
23:35 -16.6 °C -18.8 °C 34371.3 hPa North 11.4 km/h 12.9 km/h 75% 0 mm WeatherDisplay:10.37 W/m2 FEW
23:40 -16.6 °C -18.8 °C 34371.3 hPa NW 8.5 km/h 17.9 km/h 75% 0 mm WeatherDisplay:10.37 W/m2 FEW
23:45 -16.6 °C -18.9 °C 34371.3 hPa NNW 14.5 km/h 20.9 km/h 74% 0 mm WeatherDisplay:10.37 W/m2 FEW
23:50 -16.6 °C -18.9 °C 34384.8 hPa Calm   9 km/h 74% 0 mm WeatherDisplay:10.37 W/m2 FEW
23:55 -16.7 °C -19 °C 34384.8 hPa NNW 3.4 km/h 15 km/h 74% 0 mm WeatherDisplay:10.37 W/m2 FEW
Tuulensuunkaari, Veikkola, Suomi
Compliments of Weather Underground - 2.75 mb